Terminal Aerodrome Forecast
Issued by NWS

Home | Current Version | Previous Version | Text Only | Print | Product List | Glossary On
Versions: 1 2 3 4 5 6 7 8 9 10 11 12 13 14 15 16 17 18
000
FTUS43 KDLH 260800 AAA
TAFBRD
TAF AMD
KBRD 260846Z 2609/2706 05003KT P6SM SCT020 OVC040
      TEMPO 2609/2612 5SM -SN OVC020
     FM261200 01010KT 2SM -SN BR OVC015
     FM261800 35014KT P6SM BKN030
     FM262200 34010KT P6SM SCT040=

USA.gov is the U.S. government's official web portal to all federal, state and local government web resources and services.